createdAt,value
2023-01-23T00:00:38.626Z,10.45
2023-01-23T00:03:19.805Z,10.67
2023-01-23T00:05:58.017Z,10.30
2023-01-23T00:08:29.249Z,10.20
2023-01-23T00:10:58.483Z,11.07
2023-01-23T00:13:27.734Z,11.60
2023-01-23T00:15:56.560Z,11.17
2023-01-23T00:18:25.791Z,10.33
2023-01-23T00:20:54.578Z,10.10
2023-01-23T00:23:23.616Z,10.27
2023-01-23T00:25:53.766Z,11.27
2023-01-23T00:28:22.929Z,10.97
2023-01-23T00:30:51.713Z,10.53
2023-01-23T00:33:20.863Z,10.23
2023-01-23T00:35:49.752Z,10.00
2023-01-23T00:38:18.968Z,9.90
2023-01-23T00:40:48.344Z,11.53
2023-01-23T00:43:18.789Z,10.73
2023-01-23T00:45:47.577Z,10.47
2023-01-23T00:48:17.040Z,10.73
2023-01-23T00:50:46.915Z,11.73
2023-01-23T00:53:16.528Z,10.40
2023-01-23T00:55:45.589Z,10.80
2023-01-23T00:58:15.002Z,11.23
2023-01-23T01:00:45.182Z,11.37
2023-01-23T01:03:14.612Z,11.07
2023-01-23T01:05:44.373Z,10.97
2023-01-23T01:08:13.921Z,9.70
2023-01-23T01:10:43.266Z,11.57
2023-01-23T01:13:12.901Z,10.97
2023-01-23T01:15:41.798Z,8.87
2023-01-23T01:18:12.964Z,9.47
2023-01-23T01:20:42.734Z,9.53
2023-01-23T01:23:12.855Z,10.47
2023-01-23T01:25:42.162Z,9.33
2023-01-23T01:28:11.300Z,9.27
2023-01-23T01:30:41.298Z,9.10
2023-01-23T01:33:12.339Z,8.43
2023-01-23T01:35:42.311Z,11.23
2023-01-23T01:38:11.602Z,10.10
2023-01-23T01:40:40.379Z,9.43
2023-01-23T01:43:19.548Z,9.50
2023-01-23T01:46:20.676Z,8.70
2023-01-23T01:49:04.692Z,9.45
2023-01-23T01:51:39.307Z,10.13
2023-01-23T01:54:19.350Z,9.65
2023-01-23T01:56:54.400Z,9.83
2023-01-23T01:59:27.258Z,10.27
2023-01-23T02:02:05.406Z,10.07
2023-01-23T02:04:42.380Z,10.02
2023-01-23T02:07:20.484Z,8.93
2023-01-23T02:09:51.157Z,9.33
2023-01-23T02:12:20.257Z,9.23
2023-01-23T02:14:49.372Z,9.87
2023-01-23T02:17:18.178Z,8.88
2023-01-23T02:20:04.608Z,10.07
2023-01-23T02:22:45.695Z,9.57
2023-01-23T02:25:24.763Z,9.97
2023-01-23T02:27:55.062Z,9.33
2023-01-23T02:30:24.973Z,9.98
2023-01-23T02:32:56.187Z,11.03
2023-01-23T02:35:31.797Z,10.93
2023-01-23T02:38:09.074Z,10.10
2023-01-23T02:40:41.260Z,11.13
2023-01-23T02:43:19.232Z,9.63
2023-01-23T02:45:56.113Z,10.23
2023-01-23T02:48:26.021Z,11.37
2023-01-23T02:50:55.109Z,9.90
2023-01-23T02:53:25.760Z,11.30
2023-01-23T02:55:56.570Z,10.53
2023-01-23T02:58:44.097Z,11.38
2023-01-23T03:01:13.522Z,10.95
2023-01-23T03:03:43.374Z,11.00
2023-01-23T03:06:12.885Z,10.43
2023-01-23T03:08:47.649Z,10.07
2023-01-23T03:11:19.852Z,9.33
2023-01-23T03:13:50.024Z,11.27
2023-01-23T03:16:19.554Z,10.30
2023-01-23T03:18:54.820Z,11.35
2023-01-23T03:21:25.059Z,9.50
2023-01-23T03:23:54.107Z,9.97
2023-01-23T03:26:23.667Z,9.97
2023-01-23T03:29:11.307Z,11.97
2023-01-23T03:31:41.610Z,11.90
2023-01-23T03:34:10.670Z,11.17
2023-01-23T03:36:41.198Z,10.97
2023-01-23T03:39:28.013Z,10.20
2023-01-23T03:41:57.628Z,10.60
2023-01-23T03:44:31.892Z,10.88
2023-01-23T03:47:01.303Z,9.63
2023-01-23T03:49:31.080Z,10.07
2023-01-23T03:52:01.536Z,11.73
2023-01-23T03:54:31.992Z,11.87
2023-01-23T03:57:02.309Z,11.90
2023-01-23T04:00:05.213Z,11.60
2023-01-23T04:02:45.553Z,12.57
2023-01-23T04:05:16.595Z,14.70
2023-01-23T04:07:45.735Z,12.57
2023-01-23T04:10:15.860Z,12.33
2023-01-23T04:12:50.023Z,13.40
2023-01-23T04:15:21.491Z,12.30
2023-01-23T04:17:52.323Z,12.03
2023-01-23T04:20:22.299Z,14.43
2023-01-23T04:22:53.273Z,13.43
2023-01-23T04:25:23.640Z,14.60
2023-01-23T04:27:52.729Z,13.80
2023-01-23T04:30:23.904Z,12.70
2023-01-23T04:32:53.675Z,12.57
2023-01-23T04:35:22.646Z,14.10
2023-01-23T04:37:53.360Z,13.07
2023-01-23T04:40:23.185Z,14.25
2023-01-23T04:42:59.147Z,12.60
2023-01-23T04:45:52.064Z,13.70
2023-01-23T04:48:51.412Z,13.27
2023-01-23T04:51:20.324Z,12.43
2023-01-23T04:53:49.460Z,15.40
2023-01-23T04:56:19.064Z,14.37
2023-01-23T04:58:49.899Z,13.63
2023-01-23T05:01:23.433Z,13.93
2023-01-23T05:03:58.000Z,13.90
2023-01-23T05:06:26.849Z,16.47
2023-01-23T05:08:58.362Z,14.37
2023-01-23T05:11:34.068Z,13.77
2023-01-23T05:14:03.989Z,13.90
2023-01-23T05:16:37.318Z,14.63
2023-01-23T05:19:35.251Z,13.20
2023-01-23T05:22:06.491Z,14.10
2023-01-23T05:24:36.019Z,13.93
2023-01-23T05:27:05.881Z,12.97
2023-01-23T05:29:39.409Z,16.40
2023-01-23T05:32:14.885Z,14.37
2023-01-23T05:34:46.542Z,14.07
2023-01-23T05:37:25.508Z,13.88
2023-01-23T05:39:58.529Z,13.53
2023-01-23T05:42:30.687Z,13.10
2023-01-23T05:45:38.048Z,13.17
2023-01-23T05:48:15.153Z,12.47
2023-01-23T05:50:44.395Z,12.67
2023-01-23T05:53:13.427Z,16.03
2023-01-23T05:55:44.008Z,14.50
2023-01-23T05:58:16.027Z,19.93
2023-01-23T06:01:17.768Z,19.40
2023-01-23T06:04:13.105Z,16.67
2023-01-23T06:06:55.823Z,14.23
2023-01-23T06:09:25.766Z,13.33
2023-01-23T06:11:54.884Z,11.87
2023-01-23T06:14:23.849Z,12.43
2023-01-23T06:16:52.980Z,12.53
2023-01-23T06:19:24.601Z,12.83
2023-01-23T06:21:53.882Z,13.00
2023-01-23T06:24:22.935Z,12.83
2023-01-23T06:26:52.898Z,12.27
2023-01-23T06:29:21.808Z,13.17
2023-01-23T06:31:51.171Z,13.73
2023-01-23T06:34:20.198Z,12.40
2023-01-23T06:36:59.379Z,12.90
2023-01-23T06:39:30.224Z,13.07
2023-01-23T06:41:59.657Z,13.17
2023-01-23T06:44:28.729Z,12.90
2023-01-23T06:46:57.976Z,11.73
2023-01-23T06:49:27.469Z,12.30
2023-01-23T06:51:57.910Z,11.10
2023-01-23T06:54:28.214Z,15.47
2023-01-23T06:57:02.506Z,13.43
2023-01-23T06:59:32.430Z,12.63
2023-01-23T07:02:03.358Z,11.43
2023-01-23T07:04:41.414Z,13.50
2023-01-23T07:07:12.028Z,12.77
2023-01-23T07:09:42.738Z,13.33
2023-01-23T07:12:25.227Z,12.73
2023-01-23T07:14:54.294Z,14.15
2023-01-23T07:17:36.978Z,12.70
2023-01-23T07:20:07.147Z,13.75
2023-01-23T07:22:43.853Z,12.70
2023-01-23T07:25:12.731Z,13.17
2023-01-23T07:27:41.989Z,13.17
2023-01-23T07:30:13.095Z,13.25
2023-01-23T07:32:42.265Z,12.13
2023-01-23T07:35:11.655Z,12.77
2023-01-23T07:37:40.755Z,13.93
2023-01-23T07:40:13.097Z,13.07
2023-01-23T07:42:42.524Z,12.57
2023-01-23T07:45:12.827Z,14.02
2023-01-23T07:47:44.715Z,16.17
2023-01-23T07:50:16.355Z,15.07
2023-01-23T07:52:45.478Z,13.97
2023-01-23T07:55:16.107Z,14.97
2023-01-23T07:57:45.326Z,14.50
2023-01-23T08:00:14.895Z,14.20
2023-01-23T08:02:44.151Z,15.17
2023-01-23T08:05:31.095Z,15.27
2023-01-23T08:08:12.664Z,14.97
2023-01-23T08:10:43.836Z,13.90
2023-01-23T08:13:13.007Z,16.87
2023-01-23T08:15:42.048Z,14.30
2023-01-23T08:18:11.168Z,15.27
2023-01-23T08:20:40.013Z,14.73
2023-01-23T08:23:09.153Z,15.40
2023-01-23T08:25:39.929Z,14.03
2023-01-23T08:28:10.390Z,15.53
2023-01-23T08:30:39.514Z,13.37
2023-01-23T08:33:08.631Z,14.03
2023-01-23T08:35:37.783Z,13.80
2023-01-23T08:38:09.232Z,12.83
2023-01-23T08:40:38.268Z,14.77
2023-01-23T08:43:10.595Z,14.17
2023-01-23T08:45:39.452Z,12.90
2023-01-23T08:48:09.478Z,12.87
2023-01-23T08:50:38.285Z,14.93
2023-01-23T08:53:08.135Z,16.20
2023-01-23T08:55:39.029Z,14.90
2023-01-23T08:58:13.076Z,15.87
2023-01-23T09:00:42.956Z,14.70
2023-01-23T09:03:12.105Z,14.00
2023-01-23T09:05:40.877Z,13.05
2023-01-23T09:08:09.950Z,15.55
2023-01-23T09:10:38.802Z,14.83
2023-01-23T09:13:09.356Z,14.98
2023-01-23T09:15:40.227Z,15.13
2023-01-23T09:18:09.433Z,14.83
2023-01-23T09:20:39.998Z,15.87
2023-01-23T09:23:09.206Z,13.40
2023-01-23T09:25:39.659Z,13.53
2023-01-23T09:28:10.251Z,14.07
2023-01-23T09:30:39.163Z,15.38
2023-01-23T09:33:09.144Z,16.37
2023-01-23T09:35:37.987Z,14.53
2023-01-23T09:38:07.747Z,16.95
2023-01-23T09:40:46.947Z,15.13
2023-01-23T09:43:25.454Z,14.50
2023-01-23T09:46:06.987Z,14.73
2023-01-23T09:48:45.325Z,14.43
2023-01-23T09:51:24.656Z,15.43
2023-01-23T09:54:03.189Z,14.90
2023-01-23T09:56:39.404Z,16.20
2023-01-23T09:59:18.781Z,16.20
2023-01-23T10:01:47.643Z,14.18
2023-01-23T10:04:20.478Z,15.43
2023-01-23T10:07:19.490Z,15.83
2023-01-23T10:10:23.021Z,15.85
2023-01-23T10:13:07.989Z,14.82
2023-01-23T10:16:20.000Z,14.97
2023-01-23T10:19:00.134Z,16.17
2023-01-23T10:21:39.856Z,16.33
2023-01-23T10:24:40.410Z,16.23
2023-01-23T10:27:21.746Z,15.18
2023-01-23T10:29:57.846Z,14.73
2023-01-23T10:32:31.497Z,15.67
2023-01-23T10:35:06.669Z,17.08
2023-01-23T10:37:47.662Z,15.23
2023-01-23T10:40:39.572Z,16.90
2023-01-23T10:43:15.186Z,14.97
2023-01-23T10:45:46.294Z,15.83
2023-01-23T10:48:42.539Z,20.63
2023-01-23T10:51:28.816Z,22.63
2023-01-23T10:54:29.652Z,18.03
2023-01-23T10:57:02.934Z,14.60
2023-01-23T10:59:41.351Z,16.17
2023-01-23T11:02:27.528Z,16.27
2023-01-23T11:04:58.905Z,16.53
2023-01-23T11:07:31.154Z,15.48
2023-01-23T11:10:14.456Z,14.70
2023-01-23T11:12:50.356Z,15.30
2023-01-23T11:15:26.046Z,15.67
2023-01-23T11:17:57.927Z,15.73
2023-01-23T11:20:31.953Z,18.27
2023-01-23T11:23:15.803Z,17.70
2023-01-23T11:25:47.591Z,18.53
2023-01-23T11:28:27.076Z,16.80
2023-01-23T11:31:14.595Z,17.00
2023-01-23T11:33:55.838Z,16.83
2023-01-23T11:36:46.377Z,16.67
2023-01-23T11:39:32.356Z,17.13
2023-01-23T11:42:02.697Z,18.03
2023-01-23T11:44:41.489Z,16.00
2023-01-23T11:47:49.266Z,14.77
2023-01-23T11:50:41.098Z,16.07
2023-01-23T11:53:42.391Z,14.70
2023-01-23T11:56:50.435Z,16.02
2023-01-23T11:59:46.794Z,15.43
2023-01-23T12:02:49.015Z,17.40
2023-01-23T12:06:03.037Z,14.73
2023-01-23T12:08:51.744Z,15.57
2023-01-23T12:11:25.661Z,14.67
2023-01-23T12:14:17.248Z,18.27
2023-01-23T12:17:08.880Z,17.38
2023-01-23T12:20:19.098Z,63.33
2023-01-23T12:23:04.677Z,43.70
2023-01-23T12:25:37.928Z,19.30
2023-01-23T12:28:28.415Z,161.10
2023-01-23T12:31:27.564Z,41.60
2023-01-23T12:34:29.556Z,23.67
2023-01-23T12:37:30.476Z,90.10
2023-01-23T12:40:12.179Z,231.05
2023-01-23T12:42:54.935Z,207.68
2023-01-23T12:45:27.329Z,134.67
2023-01-23T12:48:07.671Z,47.00
2023-01-23T12:50:46.136Z,24.73
2023-01-23T12:53:19.116Z,20.80
2023-01-23T12:56:02.717Z,21.77
2023-01-23T12:58:42.006Z,24.93
2023-01-23T13:01:33.680Z,19.48
2023-01-23T13:04:29.900Z,23.07
2023-01-23T13:07:15.990Z,32.85
2023-01-23T13:10:07.412Z,19.67
2023-01-23T13:12:37.074Z,32.27
2023-01-23T13:15:40.724Z,52.13
2023-01-23T13:18:28.222Z,36.58
2023-01-23T13:21:18.215Z,52.83
2023-01-23T13:23:47.531Z,25.30
2023-01-23T13:26:30.058Z,29.30
2023-01-23T13:29:03.834Z,22.67
2023-01-23T13:31:46.511Z,20.93
2023-01-23T13:34:39.646Z,20.13
2023-01-23T13:37:55.783Z,17.17
2023-01-23T13:40:26.010Z,22.00
2023-01-23T13:42:55.098Z,20.48
2023-01-23T13:45:30.936Z,23.80
2023-01-23T14:22:33.704Z,16.48
2023-01-23T14:25:03.500Z,14.18
2023-01-23T14:27:52.241Z,17.48
2023-01-23T14:30:28.319Z,16.55
2023-01-23T14:32:58.947Z,16.42
2023-01-23T14:35:32.672Z,15.82
2023-01-23T14:38:07.057Z,18.70
2023-01-23T14:40:49.290Z,44.60
2023-01-23T14:43:23.463Z,23.00
2023-01-23T14:46:01.985Z,17.58
2023-01-23T14:48:36.416Z,16.48
2023-01-23T14:51:21.183Z,19.67
2023-01-23T15:00:37.906Z,17.65
2023-01-23T15:03:08.513Z,16.23
2023-01-23T15:05:39.779Z,15.48
2023-01-23T15:08:26.879Z,16.25
2023-01-23T15:11:00.620Z,14.63
2023-01-23T15:13:38.248Z,15.57
2023-01-23T15:16:16.952Z,16.27
2023-01-23T15:18:58.546Z,15.93
2023-01-23T15:21:33.503Z,15.98
2023-01-23T15:24:26.576Z,22.60
2023-01-23T15:27:07.726Z,17.70
2023-01-23T15:29:36.992Z,14.82
2023-01-23T15:32:21.434Z,100.55
2023-01-23T15:34:57.826Z,37.37
2023-01-23T15:37:29.363Z,34.95
2023-01-23T15:40:04.384Z,17.65
2023-01-23T15:42:36.012Z,16.20
2023-01-23T15:45:15.177Z,16.10
2023-01-23T15:47:44.431Z,16.05
2023-01-23T15:50:14.790Z,26.67
2023-01-23T15:52:49.970Z,27.67
2023-01-23T15:55:22.275Z,23.50
2023-01-23T15:57:53.436Z,20.85
2023-01-23T16:00:25.949Z,25.20
2023-01-23T16:02:57.976Z,21.77
2023-01-23T16:05:31.180Z,18.57
2023-01-23T16:08:02.712Z,17.55
2023-01-23T16:10:37.535Z,15.98
2023-01-23T16:13:07.911Z,16.90
2023-01-23T16:15:39.641Z,16.35
2023-01-23T16:18:09.033Z,18.10
2023-01-23T16:20:42.132Z,16.70
2023-01-23T16:23:19.771Z,17.05
2023-01-23T16:25:50.887Z,16.93
2023-01-23T16:28:23.999Z,17.05
2023-01-23T16:30:53.522Z,17.85
2023-01-23T16:33:23.556Z,16.00
2023-01-23T16:35:53.417Z,17.13
2023-01-23T16:38:27.051Z,16.08
2023-01-23T16:40:59.940Z,16.33
2023-01-23T16:43:29.593Z,17.57
2023-01-23T16:45:58.602Z,16.38
2023-01-23T16:48:28.844Z,16.10
2023-01-23T16:51:04.987Z,17.20
2023-01-23T16:53:39.159Z,16.95
2023-01-23T16:56:20.426Z,16.90
2023-01-23T16:58:51.399Z,16.58
2023-01-23T17:01:23.987Z,16.30
2023-01-23T17:04:00.461Z,15.50
2023-01-23T17:06:29.733Z,16.70
2023-01-23T17:08:59.011Z,17.75
2023-01-23T17:11:35.534Z,15.80
2023-01-23T17:14:11.132Z,17.63
2023-01-23T17:16:40.738Z,15.88
2023-01-23T17:19:21.959Z,15.40
2023-01-23T17:21:51.940Z,16.55
2023-01-23T17:24:21.348Z,23.92
2023-01-23T17:26:51.917Z,16.58
2023-01-23T17:29:21.549Z,16.58
2023-01-23T17:31:50.852Z,16.23
2023-01-23T17:34:24.504Z,17.92
2023-01-23T17:36:55.519Z,15.48
2023-01-23T17:39:25.618Z,16.20
2023-01-23T17:41:55.976Z,16.90
2023-01-23T17:44:25.339Z,16.73
2023-01-23T17:46:55.171Z,16.38
2023-01-23T17:49:31.624Z,17.10
2023-01-23T17:52:03.358Z,17.02
2023-01-23T17:54:33.148Z,17.48
2023-01-23T17:57:03.582Z,16.83
2023-01-23T17:59:32.823Z,17.60
2023-01-23T18:02:01.883Z,20.42
2023-01-23T18:04:31.402Z,18.27
2023-01-23T18:07:00.345Z,19.50
2023-01-23T18:09:29.627Z,18.70
2023-01-23T18:11:59.145Z,18.45
2023-01-23T18:14:47.978Z,17.80
2023-01-23T18:17:31.008Z,18.17
2023-01-23T18:20:01.043Z,18.50
2023-01-23T18:22:30.867Z,18.20
2023-01-23T18:25:01.229Z,18.92
2023-01-23T18:27:37.514Z,20.08
2023-01-23T18:30:29.584Z,18.47
2023-01-23T18:33:27.583Z,17.48
2023-01-23T18:36:20.078Z,18.90
2023-01-23T18:39:21.871Z,18.83
2023-01-23T18:42:14.085Z,20.27
2023-01-23T18:44:52.455Z,18.02
2023-01-23T18:47:25.526Z,19.03
2023-01-23T18:49:55.293Z,20.35
2023-01-23T18:52:38.850Z,17.83
2023-01-23T18:55:22.430Z,21.55
2023-01-23T18:58:16.135Z,19.63
2023-01-23T19:00:58.465Z,18.90
2023-01-23T19:03:41.103Z,18.00
2023-01-23T19:06:22.297Z,18.33
2023-01-23T19:08:53.644Z,18.42
2023-01-23T19:11:37.679Z,18.85
2023-01-23T19:14:25.002Z,18.52
2023-01-23T19:17:05.793Z,18.45
2023-01-23T19:19:42.729Z,18.40
2023-01-23T19:22:13.579Z,18.38
2023-01-23T19:24:43.585Z,17.87
2023-01-23T19:27:22.965Z,18.95
2023-01-23T19:29:52.658Z,19.75
2023-01-23T19:32:22.546Z,18.90
2023-01-23T19:34:56.393Z,18.47
2023-01-23T19:37:25.751Z,19.85
2023-01-23T19:39:55.051Z,18.88
2023-01-23T19:42:24.049Z,19.27
2023-01-23T19:44:54.399Z,18.35
2023-01-23T19:47:23.372Z,18.17
2023-01-23T19:49:54.027Z,18.73
2023-01-23T19:52:23.605Z,20.60
2023-01-23T19:54:52.853Z,21.13
2023-01-23T19:57:22.060Z,20.35
2023-01-23T19:59:51.344Z,24.02
2023-01-23T20:02:25.361Z,56.55
2023-01-23T20:04:57.833Z,45.25
2023-01-23T20:07:27.157Z,86.43
2023-01-23T20:09:56.501Z,60.70
2023-01-23T20:12:25.533Z,33.33
2023-01-23T20:14:57.401Z,24.98
2023-01-23T20:17:26.497Z,24.00
2023-01-23T20:19:57.116Z,23.73
2023-01-23T20:22:26.084Z,24.02
2023-01-23T20:24:55.335Z,21.98
2023-01-23T20:27:24.324Z,20.80
2023-01-23T20:29:53.974Z,19.42
2023-01-23T20:32:23.063Z,19.33
2023-01-23T20:34:56.814Z,20.25
2023-01-23T20:37:26.207Z,31.73
2023-01-23T20:39:55.495Z,25.27
2023-01-23T20:42:24.546Z,20.30
2023-01-23T20:44:53.829Z,22.17
2023-01-23T20:47:22.855Z,89.22
2023-01-23T20:49:52.333Z,89.80
2023-01-23T20:52:39.899Z,55.97
2023-01-23T20:55:10.233Z,37.35
2023-01-23T20:57:56.725Z,28.23
2023-01-23T21:00:26.220Z,23.17
2023-01-23T21:02:55.242Z,22.48
2023-01-23T21:05:24.616Z,26.73
2023-01-23T21:07:55.010Z,23.10
2023-01-23T21:10:24.297Z,39.95
2023-01-23T21:12:53.296Z,26.50
2023-01-23T21:15:23.155Z,25.83
2023-01-23T21:17:52.266Z,23.87
2023-01-23T21:20:21.718Z,23.95
2023-01-23T21:22:50.691Z,24.97
2023-01-23T21:25:21.640Z,25.80
2023-01-23T21:27:50.813Z,26.47
2023-01-23T21:30:20.346Z,24.57
2023-01-23T21:32:50.425Z,25.30
2023-01-23T21:35:20.218Z,24.77
2023-01-23T21:37:49.322Z,28.93
2023-01-23T21:40:20.328Z,25.20
2023-01-23T21:42:49.301Z,27.70
2023-01-23T21:45:18.933Z,33.03
2023-01-23T21:47:48.019Z,28.98
2023-01-23T21:50:18.757Z,53.05
2023-01-23T21:52:47.712Z,65.13
2023-01-23T21:55:17.200Z,29.93
2023-01-23T21:57:47.569Z,24.37
2023-01-23T22:00:34.955Z,33.17
2023-01-23T22:03:03.974Z,26.33
2023-01-23T22:05:35.652Z,23.75
2023-01-23T22:08:05.733Z,21.53
2023-01-23T22:10:35.128Z,22.17
2023-01-23T22:13:05.474Z,21.63
2023-01-23T22:15:34.725Z,22.13
2023-01-23T22:18:03.764Z,21.37
2023-01-23T22:20:33.007Z,22.93
2023-01-23T22:23:01.978Z,22.10
2023-01-23T22:25:31.496Z,22.37
2023-01-23T22:28:00.540Z,70.07
2023-01-23T22:30:31.201Z,32.87
2023-01-23T22:33:00.184Z,34.40
2023-01-23T22:35:29.545Z,33.42
2023-01-23T22:37:58.514Z,35.67
2023-01-23T22:40:27.933Z,38.85
2023-01-23T22:42:56.878Z,28.43
2023-01-23T22:45:26.126Z,25.63
2023-01-23T22:47:56.484Z,22.42
2023-01-23T22:50:27.421Z,22.97
2023-01-23T22:52:56.417Z,24.10
2023-01-23T22:55:25.752Z,24.92
2023-01-23T22:57:54.770Z,26.60
2023-01-23T23:00:24.280Z,26.88
2023-01-23T23:02:53.327Z,24.07
2023-01-23T23:05:23.996Z,26.80
2023-01-23T23:07:52.971Z,24.20
2023-01-23T23:10:22.464Z,22.47
2023-01-23T23:12:51.442Z,23.03
2023-01-23T23:15:21.834Z,25.58
2023-01-23T23:17:51.031Z,22.65
2023-01-23T23:20:20.593Z,21.27
2023-01-23T23:22:50.906Z,23.20
2023-01-23T23:25:20.457Z,22.60
2023-01-23T23:27:49.522Z,22.27
2023-01-23T23:30:19.327Z,21.63
2023-01-23T23:32:48.381Z,22.60
2023-01-23T23:35:17.873Z,20.25
2023-01-23T23:37:46.927Z,22.63
2023-01-23T23:40:18.531Z,21.33
2023-01-23T23:42:47.551Z,21.77
2023-01-23T23:45:16.986Z,22.45
2023-01-23T23:47:46.001Z,21.77
2023-01-23T23:50:15.327Z,21.83
2023-01-23T23:52:44.271Z,22.65
2023-01-23T23:55:13.660Z,21.70
2023-01-23T23:57:43.991Z,21.65
